METAR Data
IDs: Format: Raw Decoded Include TAF

Data at: 1820 UTC 23 Apr 2019

K0E0 231815Z AUTO 09015G19KT 10SM SCT015 BKN023 OVC032 11/08 A3017 RMK AO2 LTG DSNT W T01090075
K0E0 231755Z AUTO 10015G19KT 10SM SCT017 BKN023 OVC029 10/07 A3018 RMK AO2 T01040074 10105 20071
K0E0 231735Z AUTO 10017KT 10SM RA BKN019 OVC028 10/07 A3018 RMK AO2 T01010072
K0E0 231715Z AUTO 11010KT 10SM DZ OVC019 10/07 A3018 RMK AO2 T00950066
K0E0 231655Z AUTO 10013KT 10SM OVC017 10/07 A3019 RMK AO2 T00950065
K0E0 231635Z AUTO 09011KT 10SM OVC017 10/07 A3018 RMK AO2 T00950065
K0E0 231615Z AUTO 09013KT 10SM OVC015 10/07 A3018 RMK AO2 T00990073
K0E0 231555Z AUTO 11013KT 10SM BKN013 BKN018 OVC033 10/07 A3018 RMK AO2 T00960074
K0E0 231535Z AUTO 10013KT 10SM OVC012 09/08 A3018 RMK AO2 T00930078
K0E0 231515Z AUTO 09013KT 10SM BKN012 BKN018 OVC033 09/07 A3018 RMK AO2 T00850074
K0E0 231455Z AUTO 09012G18KT 10SM BKN035 OVC040 08/07 A3017 RMK AO2 T00800074
K0E0 231435Z AUTO 09012G18KT 10SM -RA SCT030 OVC039 08/07 A3017 RMK AO2 T00750074
K0E0 231415Z AUTO 10010KT 10SM -RA SCT029 OVC033 08/07 A3017 RMK AO2 T00750071
K0E0 231355Z AUTO 10011KT 10SM RA OVC035 08/07 A3017 RMK AO2 T00750069
K0E0 231335Z AUTO 08005G09KT 10SM OVC035 08/06 A3016 RMK AO2 T00750062
K0E0 231315Z AUTO 09009G14KT 10SM OVC033 07/06 A3016 RMK AO2 T00740057
K0E0 231255Z AUTO 08009KT 10SM OVC031 07/06 A3016 RMK AO2 T00730055
K0E0 231235Z AUTO 08010KT 10SM OVC031 07/06 A3015 RMK AO2 T00720056
K0E0 231215Z AUTO 07008KT 10SM SCT014 SCT022 OVC031 07/06 A3016 RMK AO2 T00710055
K0E0 231155Z AUTO 08006KT 10SM -DZ SCT014 SCT022 OVC031 07/05 A3016 RMK AO2 70040 T00720051 10075 20052
K0E0 231135Z AUTO 07003KT 10SM BKN035 OVC049 07/05 A3015 RMK AO2 T00670048
K0E0 231115Z AUTO 03003KT 10SM BKN037 OVC049 07/05 A3015 RMK AO2 T00650046
K0E0 231055Z AUTO 00000KT 10SM SCT020 BKN037 OVC047 06/05 A3016 RMK AO2 T00610047
K0E0 231035Z AUTO 00000KT 10SM BKN047 06/05 A3016 RMK AO2 T00550046
K0E0 231015Z AUTO 36003KT 10SM OVC047 06/05 A3016 RMK AO2 T00600050
K0E0 230955Z AUTO 36005KT 10SM OVC047 06/05 A3016 RMK AO2 T00600052
K0E0 230935Z AUTO 35004KT 10SM BKN050 BKN100 06/05 A3016 RMK AO2 T00550051
K0E0 230915Z AUTO 02006KT 10SM SCT080 06/05 A3015 RMK AO2 T00560051
K0E0 230855Z AUTO 03007KT 10SM SCT080 06/05 A3015 RMK AO2 T00610054
K0E0 230835Z AUTO 02010KT 10SM SCT050 06/06 A3015 RMK AO2 T00630055
K0E0 230815Z AUTO 02009KT 10SM BKN050 SCT080 07/05 A3015 RMK AO2 T00660054
K0E0 230755Z AUTO 06005KT 10SM BKN050 OVC070 07/06 A3016 RMK AO2 LTG DSNT S T00680055
K0E0 230735Z AUTO 05007KT 10SM SCT050 BKN060 07/06 A3016 RMK AO2 T00680058
K0E0 230715Z AUTO 05016G19KT 10SM SCT018 BKN070 BKN090 07/06 A3015 RMK AO2 LTG DSNT SE T00680058
K0E0 230655Z AUTO 06017G24KT 10SM RA SCT016 BKN050 OVC090 07/06 A3013 RMK AO2 LTG DSNT S T00710059
K0E0 230635Z AUTO 07020G26KT 10SM -RA SCT050 OVC060 08/07 A3014 RMK AO2 T00750065
K0E0 230615Z AUTO 07013G19KT 10SM OVC060 08/07 A3016 RMK AO2 T00750073
K0E0 230555Z AUTO 08009KT 10SM SCT045 BKN060 OVC075 08/07 A3018 RMK AO2 LTG DSNT E 60040 T00750072 10158 20073 401720007
K0E0 230535Z AUTO 10007KT 10SM BKN080 OVC090 08/07 A3019 RMK AO2 T00760074
K0E0 230515Z AUTO 04005KT 10SM SCT032 SCT050 OVC070 08/08 A3018 RMK AO2 T00770075
K0E0 230455Z AUTO 09006G15KT 3SM -RA SCT010 SCT022 OVC030 08/07 A3018 RMK AO2 P0021 T00750074
K0E0 230435Z AUTO 12010KT 5SM RA SCT027 OVC033 08/08 A3020 RMK AO2 P0012 T00770077
K0E0 230415Z AUTO 11013G17KT 7SM RA SCT008 OVC035 08/08 A3019 RMK AO2 P0004 T00770077
K0E0 230355Z AUTO 10009KT 10SM RA BKN037 OVC045 08/08 A3018 RMK AO2 P0018 T00770077
K0E0 230335Z AUTO 06005KT 4SM RA SCT025 OVC035 08/08 A3017 RMK AO2 P0016 T00760076
K0E0 230315Z AUTO 19012G16KT 4SM +RA SCT008 BKN028 OVC035 08/08 A3019 RMK AO2 P0008 T00780078
K0E0 230255Z AUTO 21014KT 10SM -RA SCT020 BKN042 OVC050 10/07 A3018 RMK AO2 LTG DSNT SE T00990067
K0E0 230235Z AUTO 11015G21KT 10SM -RA SCT033 BKN070 OVC075 12/06 A3016 RMK AO2 LTG DSNT S T01150063
K0E0 230215Z AUTO 12011G15KT 10SM BKN070 OVC085 12/05 A3015 RMK AO2 T01240048
K0E0 230155Z AUTO 10013G18KT 10SM VCTS BKN085 OVC110 13/05 A3012 RMK AO2 LTG DSNT S AND NW T01250045
K0E0 230135Z AUTO 09014G25KT 10SM BKN100 OVC120 13/05 A3011 RMK AO2 LTG DSNT SW T01260045
K0E0 230115Z AUTO 09020G26KT 10SM OVC100 13/04 A3010 RMK AO2 LTG DSNT S AND SW T01310043
K0E0 230055Z AUTO 09016G23KT 10SM BKN100 14/04 A3010 RMK AO2 T01350036
K0E0 230035Z AUTO 09022G28KT 10SM SCT110 14/04 A3009 RMK AO2 LTG DSNT S AND SW T01410037
K0E0 230015Z AUTO 09019G26KT 10SM BKN110 15/03 A3008 RMK AO2 LTG DSNT N AND W T01480030
K0E0 222355Z AUTO 09018G24KT 10SM SCT120 16/03 A3009 RMK AO2 LTG DSNT NE T01600028 10172 20155
K0E0 222335Z AUTO 08020G27KT 10SM VCTS SCT110 16/03 A3008 RMK AO2 LTG DSNT NE T01610034
K0E0 222315Z AUTO 08022G29KT 10SM CLR 16/03 A3009 RMK AO2 T01640027
K0E0 222255Z AUTO 08020G28KT 10SM SCT075 SCT090 16/04 A3009 RMK AO2 T01560037
K0E0 222235Z AUTO 10019G25KT 10SM SCT065 SCT075 BKN085 16/04 A3011 RMK AO2 T01570036
K0E0 222215Z AUTO 10017G21KT 10SM SCT055 SCT065 BKN075 16/04 A3012 RMK AO2 T01620036
K0E0 222155Z AUTO 09016G26KT 10SM SCT070 SCT095 16/04 A3011 RMK AO2 T01640035
K0E0 222135Z AUTO 11016KT 10SM SCT070 SCT085 17/02 A3011 RMK AO2 T01700020
K0E0 222115Z AUTO 09015KT 10SM CLR 17/04 A3012 RMK AO2 T01690035
K0E0 222055Z AUTO 09015G19KT 10SM CLR 17/03 A3013 RMK AO2 T01700033
K0E0 222035Z AUTO 11011G17KT 10SM CLR 17/03 A3014 RMK AO2 T01660031
K0E0 222015Z AUTO 12011G15KT 10SM CLR 17/03 A3014 RMK AO2 LTG DSNT NE T01670032
K0E0 221955Z AUTO 11011G16KT 10SM CLR 16/03 A3015 RMK AO2 LTG DSNT N T01630033
K0E0 221935Z AUTO 11012G15KT 10SM CLR 16/03 A3016 RMK AO2 T01610034
K0E0 221915Z AUTO 14015G24KT 10SM CLR 16/04 A3016 RMK AO2 T01590035
K0E0 221855Z AUTO 15012G26KT 10SM CLR 17/02 A3016 RMK AO2 T01670024
K0E0 221835Z AUTO 10011G18KT 10SM CLR 16/03 A3016 RMK AO2 T01630030
K0E0 221815Z AUTO 10011G19KT 10SM CLR 17/03 A3017 RMK AO2 T01660034
K0E0 221755Z AUTO 10012G19KT 10SM CLR 16/03 A3018 RMK AO2 T01610030 10172 20011
K0E0 221735Z AUTO 12012G20KT 10SM CLR 17/03 A3018 RMK AO2 T01660026
K0E0 221715Z AUTO 11013G18KT 10SM CLR 17/03 A3018 RMK AO2 T01670032
K0E0 221655Z AUTO 09013KT 10SM CLR 17/03 A3018 RMK AO2 T01680026
K0E0 221635Z AUTO 09013G18KT 10SM CLR 16/03 A3017 RMK AO2 T01550031
K0E0 221615Z AUTO 09012G16KT 10SM CLR 17/03 A3016 RMK AO2 T01680026
K0E0 221555Z AUTO 10009G14KT 10SM SCT095 16/03 A3016 RMK AO2 T01610025
K0E0 221535Z AUTO 10007KT 10SM SCT095 16/03 A3016 RMK AO2 T01570027
K0E0 221515Z AUTO 00000KT 10SM BKN095 14/03 A3016 RMK AO2 T01410027
K0E0 221455Z AUTO 15009KT 100V170 10SM SCT095 14/03 A3016 RMK AO2 T01400026
K0E0 221435Z AUTO 11004KT 10SM SCT095 13/03 A3016 RMK AO2 T01320027
K0E0 221415Z AUTO 00000KT 10SM CLR 11/01 A3016 RMK AO2 T01130009
K0E0 221355Z AUTO 22003KT 10SM CLR 09/00 A3016 RMK AO2 T00941003
K0E0 221335Z AUTO 24007KT 10SM CLR 08/M01 A3016 RMK AO2 T00781007
K0E0 221315Z AUTO 20005KT 10SM SCT100 07/M01 A3015 RMK AO2 T00661011
K0E0 221255Z AUTO 00000KT 10SM SCT100 07/M02 A3013 RMK AO2 T00731018
K0E0 221235Z AUTO 22003KT 10SM OVC100 06/M03 A3013 RMK AO2 T00551027
K0E0 221215Z AUTO 11003KT 10SM SCT110 01/M02 A3011 RMK AO2 T00121022
K0E0 221155Z AUTO 05003KT 10SM CLR 02/M02 A3010 RMK AO2 T00161020 10069 20007
K0E0 221135Z AUTO 04005KT 10SM CLR 01/M02 A3008 RMK AO2 T00141016
K0E0 221115Z AUTO 00000KT 10SM CLR 02/M01 A3008 RMK AO2 T00151015
K0E0 221055Z AUTO 01006KT 10SM CLR 01/M01 A3007 RMK AO2 T00101014
K0E0 221035Z AUTO 35006KT 10SM CLR 02/M02 A3008 RMK AO2 T00151016
K0E0 221015Z AUTO 36003KT 10SM CLR 01/M01 A3008 RMK AO2 T00111015
K0E0 220955Z AUTO 36003KT 10SM CLR 01/M02 A3008 RMK AO2 T00131016
K0E0 220935Z AUTO 34004KT 10SM SCT110 02/M01 A3008 RMK AO2 T00201013
K0E0 220915Z AUTO 35004KT 10SM SCT110 02/M01 A3008 RMK AO2 T00241013
K0E0 220855Z AUTO 07004KT 10SM SCT110 03/M01 A3008 RMK AO2 T00291015
K0E0 220835Z AUTO 06004KT 10SM CLR 02/M01 A3007 RMK AO2 T00201015
K0E0 220815Z AUTO 35003KT 10SM CLR 03/M01 A3007 RMK AO2 T00251013
K0E0 220755Z AUTO 00000KT 10SM CLR 03/M01 A3008 RMK AO2 T00301015
K0E0 220735Z AUTO 00000KT 10SM CLR 05/M01 A3008 RMK AO2 T00511012
K0E0 220715Z AUTO 00000KT 10SM CLR 04/M01 A3007 RMK AO2 T00421013
K0E0 220655Z AUTO 00000KT 10SM CLR 05/M01 A3007 RMK AO2 T00501011
K0E0 220635Z AUTO 00000KT 10SM CLR 06/M01 A3006 RMK AO2 T00591012